Time;durP1;ratioP1;P1;durP2;ratioP2;P2;SDS_P1;SDS_P2;PMS_P1;PMS_P2;Temp;Humidity;BMP_temperature;BMP_pressure;BME280_temperature;BME280_humidity;BME280_pressure;Samples;Min_cycle;Max_cycle;Signal;HPM_P1;HPM_P2
2021/09/05 00:01:14;;;;;;;3.67;3.19;;;;;;;20.59;70.89;100530.81;;;;-52
2021/09/05 00:04:13;;;;;;;3.39;3.09;;;;;;;20.59;70.90;100530.65;;;;-52
2021/09/05 00:07:14;;;;;;;3.74;3.35;;;;;;;20.59;70.87;100522.43;;;;-51
2021/09/05 00:10:13;;;;;;;3.47;3.17;;;;;;;20.58;70.90;100521.27;;;;-51
2021/09/05 00:13:14;;;;;;;3.69;3.27;;;;;;;20.58;70.89;100523.30;;;;-51
2021/09/05 00:16:14;;;;;;;3.68;3.19;;;;;;;20.57;70.94;100523.70;;;;-50
2021/09/05 00:19:13;;;;;;;3.77;3.39;;;;;;;20.57;70.91;100519.13;;;;-53
2021/09/05 00:22:14;;;;;;;3.58;3.24;;;;;;;20.56;70.91;100522.61;;;;-53
2021/09/05 00:25:13;;;;;;;3.43;3.13;;;;;;;20.56;70.92;100520.75;;;;-53
2021/09/05 00:28:13;;;;;;;4.17;3.23;;;;;;;20.56;70.94;100524.81;;;;-50
2021/09/05 00:31:14;;;;;;;3.72;3.37;;;;;;;20.56;70.92;100520.91;;;;-51
2021/09/05 00:34:13;;;;;;;3.41;3.11;;;;;;;20.54;70.98;100522.31;;;;-51
2021/09/05 00:37:13;;;;;;;3.89;3.27;;;;;;;20.55;70.94;100522.55;;;;-53
2021/09/05 00:40:14;;;;;;;3.23;2.93;;;;;;;20.54;70.90;100526.76;;;;-53
2021/09/05 00:43:13;;;;;;;3.67;3.28;;;;;;;20.54;70.86;100533.68;;;;-53
2021/09/05 00:46:14;;;;;;;3.67;3.10;;;;;;;20.54;70.93;100536.78;;;;-59
2021/09/05 00:49:13;;;;;;;3.41;3.11;;;;;;;20.54;70.87;100540.84;;;;-60
2021/09/05 00:52:14;;;;;;;3.68;3.38;;;;;;;20.54;70.87;100547.03;;;;-59
2021/09/05 00:55:14;;;;;;;3.50;3.20;;;;;;;20.52;70.91;100546.23;;;;-60
2021/09/05 00:58:13;;;;;;;3.56;3.26;;;;;;;20.52;70.94;100549.50;;;;-53
2021/09/05 01:01:14;;;;;;;3.53;3.21;;;;;;;20.52;70.92;100550.52;;;;-53
2021/09/05 01:04:13;;;;;;;3.67;3.26;;;;;;;20.52;70.91;100554.22;;;;-53
2021/09/05 01:07:14;;;;;;;3.61;3.26;;;;;;;20.51;70.91;100555.34;;;;-53
2021/09/05 01:10:14;;;;;;;3.60;3.29;;;;;;;20.51;70.92;100558.59;;;;-53
2021/09/05 01:13:13;;;;;;;3.53;3.21;;;;;;;20.51;70.93;100561.20;;;;-51
2021/09/05 01:16:14;;;;;;;3.44;3.14;;;;;;;20.51;70.89;100558.77;;;;-51
2021/09/05 01:19:13;;;;;;;3.23;2.93;;;;;;;20.50;70.95;100559.56;;;;-51
2021/09/05 01:22:14;;;;;;;3.85;3.18;;;;;;;20.50;70.99;100561.70;;;;-51
2021/09/05 01:25:14;;;;;;;3.76;3.30;;;;;;;20.50;70.93;100562.65;;;;-51
2021/09/05 01:28:13;;;;;;;3.38;3.04;;;;;;;20.50;70.99;100564.93;;;;-53
2021/09/05 01:31:14;;;;;;;3.40;3.10;;;;;;;20.49;71.00;100559.89;;;;-54
2021/09/05 01:34:13;;;;;;;3.61;3.31;;;;;;;20.48;70.98;100560.23;;;;-59
2021/09/05 01:37:14;;;;;;;3.35;3.05;;;;;;;20.48;70.97;100560.44;;;;-60
2021/09/05 01:40:13;;;;;;;3.51;3.17;;;;;;;20.48;70.93;100563.38;;;;-59
2021/09/05 01:43:13;;;;;;;3.49;3.19;;;;;;;20.48;70.96;100564.21;;;;-53
2021/09/05 01:46:13;;;;;;;3.36;3.03;;;;;;;20.47;70.95;100567.45;;;;-51
2021/09/05 01:49:13;;;;;;;3.81;3.17;;;;;;;20.47;71.01;100566.48;;;;-51
2021/09/05 01:52:14;;;;;;;3.38;3.08;;;;;;;20.47;70.97;100574.30;;;;-50
2021/09/05 01:55:14;;;;;;;3.64;3.17;;;;;;;20.47;71.02;100575.27;;;;-54
2021/09/05 01:58:14;;;;;;;3.53;3.00;;;;;;;20.47;71.00;100574.53;;;;-59
2021/09/05 02:01:14;;;;;;;3.86;3.02;;;;;;;20.47;70.95;100577.14;;;;-59
2021/09/05 02:04:13;;;;;;;3.82;3.03;;;;;;;20.47;70.98;100576.66;;;;-59
2021/09/05 02:07:14;;;;;;;3.18;2.91;;;;;;;20.45;70.98;100575.91;;;;-59
2021/09/05 02:10:14;;;;;;;3.31;2.99;;;;;;;20.46;71.01;100576.88;;;;-59
2021/09/05 02:13:13;;;;;;;3.87;3.43;;;;;;;20.46;70.99;100578.18;;;;-59
2021/09/05 02:16:14;;;;;;;3.52;3.22;;;;;;;20.46;71.01;100577.78;;;;-53
2021/09/05 02:19:13;;;;;;;3.32;3.01;;;;;;;20.45;70.96;100578.76;;;;-53
2021/09/05 02:22:13;;;;;;;3.19;2.88;;;;;;;20.45;71.04;100582.09;;;;-53
2021/09/05 02:25:14;;;;;;;3.56;3.02;;;;;;;20.44;71.04;100576.87;;;;-53
2021/09/05 02:28:13;;;;;;;3.47;3.12;;;;;;;20.44;71.05;100581.84;;;;-50
2021/09/05 02:31:14;;;;;;;3.44;3.14;;;;;;;20.44;71.01;100580.45;;;;-51
2021/09/05 02:34:13;;;;;;;3.39;3.09;;;;;;;20.44;71.03;100583.63;;;;-51
2021/09/05 02:37:13;;;;;;;3.36;3.06;;;;;;;20.43;71.05;100584.45;;;;-53
2021/09/05 02:40:14;;;;;;;3.36;3.06;;;;;;;20.43;71.00;100587.30;;;;-53
2021/09/05 02:43:13;;;;;;;3.25;2.95;;;;;;;20.43;71.05;100589.82;;;;-54
2021/09/05 02:46:14;;;;;;;3.46;3.14;;;;;;;20.42;71.07;100593.55;;;;-53
2021/09/05 02:49:13;;;;;;;3.75;3.22;;;;;;;20.42;71.04;100593.55;;;;-59
2021/09/05 02:52:13;;;;;;;3.41;3.11;;;;;;;20.42;71.02;100594.20;;;;-59
2021/09/05 02:55:14;;;;;;;3.46;3.16;;;;;;;20.42;71.06;100593.06;;;;-59
2021/09/05 02:58:13;;;;;;;3.29;2.99;;;;;;;20.41;71.02;100590.46;;;;-59
2021/09/05 03:01:14;;;;;;;3.47;3.17;;;;;;;20.42;71.02;100587.77;;;;-59
2021/09/05 03:04:13;;;;;;;3.53;3.23;;;;;;;20.41;71.04;100585.09;;;;-59
2021/09/05 03:07:14;;;;;;;3.35;3.05;;;;;;;20.40;70.98;100588.73;;;;-59
2021/09/05 03:10:13;;;;;;;3.51;3.21;;;;;;;20.40;71.03;100586.30;;;;-59
2021/09/05 03:13:13;;;;;;;3.43;3.13;;;;;;;20.40;71.08;100584.50;;;;-59
2021/09/05 03:16:14;;;;;;;3.40;3.10;;;;;;;20.39;71.03;100583.70;;;;-59
2021/09/05 03:19:13;;;;;;;3.37;3.07;;;;;;;20.39;71.06;100588.09;;;;-60
2021/09/05 03:22:14;;;;;;;3.41;3.11;;;;;;;20.38;71.11;100587.94;;;;-60
2021/09/05 03:25:14;;;;;;;3.36;2.95;;;;;;;20.38;71.12;100588.19;;;;-59
2021/09/05 03:28:13;;;;;;;3.54;3.09;;;;;;;20.38;71.09;100596.08;;;;-60
2021/09/05 03:31:14;;;;;;;3.32;3.02;;;;;;;20.37;71.15;100598.98;;;;-60
2021/09/05 03:34:13;;;;;;;3.63;3.16;;;;;;;20.37;71.08;100601.43;;;;-59
2021/09/05 03:37:13;;;;;;;3.03;2.74;;;;;;;20.36;71.11;100605.27;;;;-59
2021/09/05 03:40:14;;;;;;;3.21;2.91;;;;;;;20.36;71.11;100608.11;;;;-59
2021/09/05 03:43:14;;;;;;;3.68;3.19;;;;;;;20.36;71.14;100609.98;;;;-59
2021/09/05 03:46:13;;;;;;;3.49;3.19;;;;;;;20.36;71.14;100610.64;;;;-59
2021/09/05 03:49:13;;;;;;;3.34;3.04;;;;;;;20.35;71.14;100611.43;;;;-59
2021/09/05 03:52:13;;;;;;;3.44;3.14;;;;;;;20.35;71.14;100611.43;;;;-59
2021/09/05 03:55:14;;;;;;;3.19;2.89;;;;;;;20.35;71.12;100613.95;;;;-60
2021/09/05 03:58:13;;;;;;;3.30;3.00;;;;;;;20.35;71.10;100619.66;;;;-59
2021/09/05 04:01:14;;;;;;;3.27;2.97;;;;;;;20.35;71.13;100618.19;;;;-59
2021/09/05 04:04:14;;;;;;;3.39;3.09;;;;;;;20.34;71.14;100619.25;;;;-60
2021/09/05 04:07:17;;;;;;;3.48;3.17;;;;;;;20.33;71.13;100623.14;;;;-59
2021/09/05 04:10:14;;;;;;;3.44;3.14;;;;;;;20.33;71.11;100624.92;;;;-59
2021/09/05 04:13:14;;;;;;;3.29;2.99;;;;;;;20.34;71.10;100626.02;;;;-59
2021/09/05 04:16:14;;;;;;;3.26;2.96;;;;;;;20.33;71.13;100620.30;;;;-59
2021/09/05 04:19:13;;;;;;;3.35;2.99;;;;;;;20.32;71.13;100620.88;;;;-59
2021/09/05 04:22:13;;;;;;;3.17;2.87;;;;;;;20.32;71.17;100628.44;;;;-59
2021/09/05 04:25:14;;;;;;;3.21;2.91;;;;;;;20.32;71.15;100626.56;;;;-60
2021/09/05 04:28:13;;;;;;;3.09;2.79;;;;;;;20.30;71.18;100626.87;;;;-59
2021/09/05 04:31:14;;;;;;;3.44;3.14;;;;;;;20.30;71.17;100627.20;;;;-60
2021/09/05 04:34:13;;;;;;;3.34;3.04;;;;;;;20.31;71.09;100635.02;;;;-59
2021/09/05 04:37:13;;;;;;;3.29;2.99;;;;;;;20.31;71.13;100639.65;;;;-60
2021/09/05 04:40:14;;;;;;;3.28;2.96;;;;;;;20.29;71.19;100638.84;;;;-59
2021/09/05 04:43:13;;;;;;;3.32;3.02;;;;;;;20.30;71.17;100643.23;;;;-58
2021/09/05 04:46:13;;;;;;;3.14;2.85;;;;;;;20.29;71.16;100645.69;;;;-60
2021/09/05 04:49:13;;;;;;;3.18;2.90;;;;;;;20.30;71.13;100645.92;;;;-59
2021/09/05 04:52:13;;;;;;;3.40;3.10;;;;;;;20.29;71.14;100649.97;;;;-59
2021/09/05 04:55:14;;;;;;;3.86;2.90;;;;;;;20.29;71.12;100655.45;;;;-59
2021/09/05 04:58:13;;;;;;;3.31;3.01;;;;;;;20.29;71.15;100659.84;;;;-59
2021/09/05 05:01:13;;;;;;;3.44;3.10;;;;;;;20.29;71.12;100659.82;;;;-59
2021/09/05 05:04:13;;;;;;;3.38;3.08;;;;;;;20.29;71.15;100658.27;;;;-59
2021/09/05 05:07:13;;;;;;;3.36;3.06;;;;;;;20.28;71.14;100661.38;;;;-59
2021/09/05 05:10:14;;;;;;;3.27;2.97;;;;;;;20.27;71.13;100666.02;;;;-59
2021/09/05 05:13:13;;;;;;;3.25;2.95;;;;;;;20.28;71.15;100670.33;;;;-59
2021/09/05 05:16:13;;;;;;;3.63;3.07;;;;;;;20.28;71.12;100672.44;;;;-59
2021/09/05 05:19:13;;;;;;;3.32;3.01;;;;;;;20.27;71.16;100671.93;;;;-59
2021/09/05 05:22:13;;;;;;;3.31;3.01;;;;;;;20.28;71.15;100676.59;;;;-59
2021/09/05 05:25:14;;;;;;;3.19;2.91;;;;;;;20.27;71.17;100679.26;;;;-59
2021/09/05 05:28:13;;;;;;;3.17;2.87;;;;;;;20.26;71.16;100682.44;;;;-59
2021/09/05 05:31:13;;;;;;;3.23;2.93;;;;;;;20.27;71.20;100685.03;;;;-59
2021/09/05 05:34:13;;;;;;;3.11;2.89;;;;;;;20.27;71.19;100686.91;;;;-59
2021/09/05 05:37:14;;;;;;;3.30;3.00;;;;;;;20.26;71.19;100686.52;;;;-59
2021/09/05 05:40:13;;;;;;;2.98;2.71;;;;;;;20.26;71.19;100686.83;;;;-59
2021/09/05 05:43:13;;;;;;;3.41;3.11;;;;;;;20.27;71.13;100692.20;;;;-59
2021/09/05 05:46:13;;;;;;;3.20;2.90;;;;;;;20.26;71.18;100694.64;;;;-60
2021/09/05 05:49:13;;;;;;;3.36;2.87;;;;;;;20.27;71.23;100691.30;;;;-59
2021/09/05 05:52:13;;;;;;;3.44;3.14;;;;;;;20.26;71.19;100692.28;;;;-59
2021/09/05 05:55:13;;;;;;;3.34;3.04;;;;;;;20.25;71.22;100694.48;;;;-53
2021/09/05 05:58:13;;;;;;;3.15;2.85;;;;;;;20.26;71.20;100694.08;;;;-53
2021/09/05 06:01:13;;;;;;;3.13;2.83;;;;;;;20.26;71.19;100694.56;;;;-53
2021/09/05 06:04:14;;;;;;;3.29;2.98;;;;;;;20.26;71.19;100696.36;;;;-53
2021/09/05 06:07:13;;;;;;;3.38;2.76;;;;;;;20.25;71.20;100700.67;;;;-53
2021/09/05 06:10:13;;;;;;;3.16;2.89;;;;;;;20.26;71.22;100703.36;;;;-53
2021/09/05 06:13:13;;;;;;;3.01;2.75;;;;;;;20.26;71.20;100704.50;;;;-53
2021/09/05 06:16:13;;;;;;;2.99;2.79;;;;;;;20.26;71.20;100710.77;;;;-53
2021/09/05 06:19:13;;;;;;;3.07;2.77;;;;;;;20.26;71.18;100711.41;;;;-53
2021/09/05 06:22:13;;;;;;;3.31;2.99;;;;;;;20.25;71.21;100711.87;;;;-53
2021/09/05 06:25:13;;;;;;;3.36;3.06;;;;;;;20.25;71.22;100715.48;;;;-53
2021/09/05 06:28:13;;;;;;;3.07;2.77;;;;;;;20.25;71.21;100713.83;;;;-59
2021/09/05 06:31:13;;;;;;;3.00;2.80;;;;;;;20.24;71.23;100715.63;;;;-59
2021/09/05 06:34:13;;;;;;;3.21;2.91;;;;;;;20.24;71.24;100719.20;;;;-59
2021/09/05 06:37:13;;;;;;;2.99;2.75;;;;;;;20.25;71.18;100721.48;;;;-59
2021/09/05 06:40:13;;;;;;;2.85;2.64;;;;;;;20.24;71.22;100721.98;;;;-59
2021/09/05 06:43:14;;;;;;;2.96;2.72;;;;;;;20.25;71.20;100725.63;;;;-59
2021/09/05 06:46:14;;;;;;;3.24;2.94;;;;;;;20.24;71.22;100720.35;;;;-60
2021/09/05 06:49:13;;;;;;;3.25;2.95;;;;;;;20.24;71.21;100720.44;;;;-59
2021/09/05 06:52:13;;;;;;;3.40;3.10;;;;;;;20.24;71.25;100724.02;;;;-59
2021/09/05 06:55:13;;;;;;;3.02;2.82;;;;;;;20.24;71.20;100726.86;;;;-59
2021/09/05 06:58:13;;;;;;;3.35;3.05;;;;;;;20.24;71.20;100726.38;;;;-59
2021/09/05 07:01:13;;;;;;;3.21;2.91;;;;;;;20.24;71.24;100721.73;;;;-59
2021/09/05 07:04:14;;;;;;;3.11;2.87;;;;;;;20.24;71.24;100727.27;;;;-59
2021/09/05 07:07:13;;;;;;;3.33;3.03;;;;;;;20.24;71.23;100725.96;;;;-59
2021/09/05 07:10:13;;;;;;;3.37;3.07;;;;;;;20.23;71.24;100726.38;;;;-60
2021/09/05 07:13:13;;;;;;;3.02;2.81;;;;;;;20.24;71.23;100725.48;;;;-59
2021/09/05 07:16:13;;;;;;;3.25;2.97;;;;;;;20.23;71.20;100727.08;;;;-59
2021/09/05 07:19:14;;;;;;;3.27;2.99;;;;;;;20.24;71.25;100732.97;;;;-59
2021/09/05 07:22:13;;;;;;;3.00;2.79;;;;;;;20.24;71.22;100736.62;;;;-59
2021/09/05 07:25:13;;;;;;;3.03;2.75;;;;;;;20.24;71.21;100741.67;;;;-59
2021/09/05 07:28:13;;;;;;;3.29;3.00;;;;;;;20.24;71.23;100746.23;;;;-59
2021/09/05 07:31:13;;;;;;;3.17;2.92;;;;;;;20.24;71.24;100747.78;;;;-59
2021/09/05 07:34:14;;;;;;;3.09;2.87;;;;;;;20.23;71.18;100750.14;;;;-59
2021/09/05 07:37:14;;;;;;;3.01;2.79;;;;;;;20.24;71.24;100753.96;;;;-59
2021/09/05 07:40:13;;;;;;;3.31;3.01;;;;;;;20.24;71.24;100757.05;;;;-59
2021/09/05 07:43:13;;;;;;;3.07;2.81;;;;;;;20.24;71.21;100759.66;;;;-59
2021/09/05 07:46:13;;;;;;;2.93;2.72;;;;;;;20.23;71.21;100753.72;;;;-59
2021/09/05 07:49:14;;;;;;;3.06;2.86;;;;;;;20.24;71.19;100755.34;;;;-60
2021/09/05 07:52:13;;;;;;;2.97;2.76;;;;;;;20.23;71.19;100757.52;;;;-60
2021/09/05 07:55:13;;;;;;;3.13;2.83;;;;;;;20.24;71.18;100758.27;;;;-52
2021/09/05 07:58:13;;;;;;;2.99;2.71;;;;;;;20.24;71.17;100759.33;;;;-52
2021/09/05 08:01:13;;;;;;;3.21;2.91;;;;;;;20.24;71.22;100758.69;;;;-52
2021/09/05 08:04:13;;;;;;;3.25;2.99;;;;;;;20.24;71.20;100762.59;;;;-52
2021/09/05 08:07:13;;;;;;;3.06;2.77;;;;;;;20.24;71.13;100761.61;;;;-52
2021/09/05 08:10:13;;;;;;;3.19;2.95;;;;;;;20.24;71.25;100765.60;;;;-52
2021/09/05 08:13:13;;;;;;;3.12;2.82;;;;;;;20.23;71.20;100772.81;;;;-52
2021/09/05 08:16:13;;;;;;;2.94;2.73;;;;;;;20.22;71.23;100766.88;;;;-52
2021/09/05 08:19:13;;;;;;;2.98;2.69;;;;;;;20.23;71.22;100771.19;;;;-53
2021/09/05 08:22:13;;;;;;;3.31;3.01;;;;;;;20.23;71.23;100772.98;;;;-53
2021/09/05 08:25:13;;;;;;;3.20;2.90;;;;;;;20.23;71.19;100769.56;;;;-53
2021/09/05 08:28:13;;;;;;;3.03;2.82;;;;;;;20.23;71.17;100768.75;;;;-53
2021/09/05 08:31:13;;;;;;;3.19;2.91;;;;;;;20.23;71.20;100763.38;;;;-54
2021/09/05 08:34:13;;;;;;;4.21;2.90;;;;;;;20.26;71.23;100768.30;;;;-51
2021/09/05 08:37:13;;;;;;;4.81;3.97;;;;;;;20.26;71.19;100775.95;;;;-52
2021/09/05 08:40:13;;;;;;;5.15;4.65;;;;;;;20.26;71.21;100777.41;;;;-53
2021/09/05 08:43:14;;;;;;;5.78;5.17;;;;;;;20.27;71.37;100780.02;;;;-58
2021/09/05 08:46:13;;;;;;;7.57;4.87;;;;;;;20.28;71.51;100781.91;;;;-58
2021/09/05 08:49:13;;;;;;;8.10;5.32;;;;;;;20.32;71.62;100788.30;;;;-60
2021/09/05 08:52:13;;;;;;;6.43;4.87;;;;;;;20.34;71.59;100787.58;;;;-56
2021/09/05 08:55:13;;;;;;;4.93;4.45;;;;;;;20.36;71.69;100790.91;;;;-52
2021/09/05 08:58:14;;;;;;;5.83;5.03;;;;;;;20.38;71.67;100792.66;;;;-50
2021/09/05 09:01:13;;;;;;;5.64;4.60;;;;;;;20.41;71.60;100795.44;;;;-53
2021/09/05 09:04:13;;;;;;;5.17;4.62;;;;;;;20.42;71.77;100795.75;;;;-51
2021/09/05 09:07:14;;;;;;;5.79;4.47;;;;;;;20.42;71.68;100793.09;;;;-52
2021/09/05 09:10:13;;;;;;;5.31;4.72;;;;;;;20.43;71.69;100793.83;;;;-61
2021/09/05 09:13:13;;;;;;;7.11;4.37;;;;;;;20.45;71.74;100799.63;;;;-61
2021/09/05 09:16:13;;;;;;;5.81;4.43;;;;;;;20.45;71.58;100797.50;;;;-54
2021/09/05 09:19:13;;;;;;;5.97;4.37;;;;;;;20.46;71.66;100800.19;;;;-54
2021/09/05 09:22:13;;;;;;;5.53;4.93;;;;;;;20.45;71.68;100798.16;;;;-54
2021/09/05 09:25:13;;;;;;;6.28;4.46;;;;;;;20.46;71.72;100795.63;;;;-52
2021/09/05 09:28:13;;;;;;;7.77;4.53;;;;;;;20.48;71.79;100795.56;;;;-51
2021/09/05 09:31:13;;;;;;;9.19;4.92;;;;;;;20.50;71.74;100796.39;;;;-52
2021/09/05 09:34:13;;;;;;;11.57;5.09;;;;;;;20.52;71.60;100797.05;;;;-52
2021/09/05 09:37:14;;;;;;;10.38;5.09;;;;;;;20.54;71.71;100793.33;;;;-53
2021/09/05 09:40:13;;;;;;;9.10;5.07;;;;;;;20.55;71.33;100794.41;;;;-54
2021/09/05 09:43:14;;;;;;;8.86;5.07;;;;;;;20.56;71.48;100793.34;;;;-54
2021/09/05 09:46:13;;;;;;;9.77;4.85;;;;;;;20.57;71.59;100788.89;;;;-53
2021/09/05 09:49:14;;;;;;;10.87;5.16;;;;;;;20.56;71.78;100784.30;;;;-57
2021/09/05 09:52:13;;;;;;;7.81;4.92;;;;;;;20.59;71.74;100785.11;;;;-49
2021/09/05 09:55:13;;;;;;;7.82;4.78;;;;;;;20.60;71.67;100777.84;;;;-50
2021/09/05 09:58:14;;;;;;;10.23;5.11;;;;;;;20.59;71.75;100776.22;;;;-51
2021/09/05 10:01:13;;;;;;;7.39;5.03;;;;;;;20.61;71.76;100770.52;;;;-49
2021/09/05 10:04:13;;;;;;;9.06;4.68;;;;;;;20.61;71.70;100764.27;;;;-50
2021/09/05 10:07:13;;;;;;;8.81;4.85;;;;;;;20.63;71.71;100764.17;;;;-52
2021/09/05 10:10:14;;;;;;;11.71;4.86;;;;;;;20.64;71.72;100761.43;;;;-55
2021/09/05 10:13:13;;;;;;;7.59;4.62;;;;;;;20.64;71.73;100764.20;;;;-56
2021/09/05 10:16:13;;;;;;;7.19;4.28;;;;;;;20.65;71.68;100759.17;;;;-54
2021/09/05 10:19:13;;;;;;;7.70;4.61;;;;;;;20.66;71.67;100760.88;;;;-52
2021/09/05 10:22:13;;;;;;;6.00;4.30;;;;;;;20.66;71.70;100757.94;;;;-52
2021/09/05 10:25:15;;;;;;;5.87;4.45;;;;;;;20.67;71.66;100757.69;;;;-58
2021/09/05 10:28:13;;;;;;;8.03;4.50;;;;;;;20.67;71.65;100760.41;;;;-57
2021/09/05 10:31:13;;;;;;;5.61;4.45;;;;;;;20.68;71.65;100757.55;;;;-57
2021/09/05 10:34:13;;;;;;;6.83;4.41;;;;;;;20.69;71.67;100760.80;;;;-56
2021/09/05 10:37:13;;;;;;;6.90;4.50;;;;;;;20.69;71.68;100755.05;;;;-57
2021/09/05 10:40:13;;;;;;;5.41;4.59;;;;;;;20.70;71.66;100754.46;;;;-57
2021/09/05 10:43:13;;;;;;;5.67;4.39;;;;;;;20.71;71.63;100755.52;;;;-57
2021/09/05 10:46:13;;;;;;;5.11;4.08;;;;;;;20.71;71.63;100752.45;;;;-58
2021/09/05 10:49:14;;;;;;;5.83;4.33;;;;;;;20.72;71.62;100754.31;;;;-56
2021/09/05 10:52:13;;;;;;;5.79;4.37;;;;;;;20.72;71.58;100754.31;;;;-59
2021/09/05 10:55:13;;;;;;;6.77;4.54;;;;;;;20.72;71.46;100752.84;;;;-60
2021/09/05 10:58:13;;;;;;;5.10;4.13;;;;;;;20.72;71.54;100756.68;;;;-52
2021/09/05 11:01:13;;;;;;;5.99;4.43;;;;;;;20.72;71.57;100756.19;;;;-51
2021/09/05 11:04:14;;;;;;;6.46;4.29;;;;;;;20.72;71.49;100754.73;;;;-52
2021/09/05 11:07:13;;;;;;;6.16;4.18;;;;;;;20.71;71.44;100750.80;;;;-51
2021/09/05 11:10:13;;;;;;;5.37;4.21;;;;;;;20.71;71.43;100749.90;;;;-52
2021/09/05 11:13:13;;;;;;;4.62;4.10;;;;;;;20.70;71.39;100750.06;;;;-51
2021/09/05 11:16:13;;;;;;;5.47;4.07;;;;;;;20.70;71.36;100745.02;;;;-51
2021/09/05 11:19:13;;;;;;;7.14;4.27;;;;;;;20.69;71.36;100741.03;;;;-52
2021/09/05 11:22:13;;;;;;;7.75;4.24;;;;;;;20.69;71.30;100745.59;;;;-52
2021/09/05 11:25:13;;;;;;;5.27;4.03;;;;;;;20.69;71.29;100740.27;;;;-51
2021/09/05 11:28:14;;;;;;;6.11;4.50;;;;;;;20.69;71.26;100741.69;;;;-52
2021/09/05 11:31:13;;;;;;;6.19;4.07;;;;;;;20.68;71.24;100739.30;;;;-51
2021/09/05 11:34:13;;;;;;;5.56;4.03;;;;;;;20.68;71.19;100740.20;;;;-52
2021/09/05 11:37:13;;;;;;;6.72;4.27;;;;;;;20.67;71.23;100741.34;;;;-52
2021/09/05 11:40:13;;;;;;;4.43;3.89;;;;;;;20.67;71.20;100739.47;;;;-52
2021/09/05 11:43:13;;;;;;;5.02;3.87;;;;;;;20.67;71.13;100743.88;;;;-51
2021/09/05 11:46:13;;;;;;;4.35;3.94;;;;;;;20.67;71.13;100743.62;;;;-52
2021/09/05 11:49:13;;;;;;;4.52;3.93;;;;;;;20.67;71.16;100745.50;;;;-51
2021/09/05 12:08:13;;;;;;;4.12;3.72;;;;;;;20.66;71.05;100743.77;;;;-62
2021/09/05 12:11:13;;;;;;;4.66;3.96;;;;;;;20.66;71.12;100753.46;;;;-56
2021/09/05 12:14:13;;;;;;;4.16;3.76;;;;;;;20.68;71.10;100754.29;;;;-52
2021/09/05 12:17:13;;;;;;;7.39;4.09;;;;;;;20.69;71.22;100752.92;;;;-54
2021/09/05 12:20:13;;;;;;;9.43;3.79;;;;;;;20.71;71.20;100750.47;;;;-56
2021/09/05 12:23:13;;;;;;;4.79;4.03;;;;;;;20.72;71.23;100749.67;;;;-48
2021/09/05 12:26:13;;;;;;;5.67;4.27;;;;;;;20.74;71.22;100748.71;;;;-51
2021/09/05 12:29:14;;;;;;;4.09;3.69;;;;;;;20.75;71.16;100747.23;;;;-51
2021/09/05 12:32:13;;;;;;;5.75;3.91;;;;;;;20.74;71.26;100746.67;;;;-51
2021/09/05 12:35:13;;;;;;;5.15;3.57;;;;;;;20.73;71.20;100742.93;;;;-51
2021/09/05 12:38:13;;;;;;;6.15;3.84;;;;;;;20.75;71.12;100746.91;;;;-51
2021/09/05 12:41:13;;;;;;;5.05;3.95;;;;;;;20.73;71.21;100745.34;;;;-53
2021/09/05 12:44:13;;;;;;;5.15;3.89;;;;;;;20.73;71.13;100741.22;;;;-52
2021/09/05 12:47:13;;;;;;;4.47;3.87;;;;;;;20.73;71.19;100742.98;;;;-52
2021/09/05 12:50:13;;;;;;;5.59;4.10;;;;;;;20.73;71.07;100743.75;;;;-58
2021/09/05 12:53:13;;;;;;;4.49;3.79;;;;;;;20.74;71.06;100742.03;;;;-60
2021/09/05 12:56:13;;;;;;;5.35;3.88;;;;;;;20.76;71.15;100740.33;;;;-61
2021/09/05 12:59:21;;;;;;;7.41;4.86;;;;;;;20.77;71.17;100737.66;;;;-48
2021/09/05 13:02:13;;;;;;;7.51;4.32;;;;;;;20.77;71.13;100734.97;;;;-52
2021/09/05 13:05:13;;;;;;;7.45;3.88;;;;;;;20.79;71.20;100735.37;;;;-54
2021/09/05 13:08:13;;;;;;;5.30;3.91;;;;;;;20.79;71.19;100728.77;;;;-59
2021/09/05 13:11:14;;;;;;;6.11;4.01;;;;;;;20.80;71.21;100733.43;;;;-52
2021/09/05 13:14:14;;;;;;;5.64;4.24;;;;;;;20.80;71.14;100730.01;;;;-51
2021/09/05 13:17:13;;;;;;;4.37;3.97;;;;;;;20.82;71.27;100728.31;;;;-52
2021/09/05 13:20:13;;;;;;;6.51;3.53;;;;;;;20.83;71.25;100726.52;;;;-51
2021/09/05 13:23:13;;;;;;;5.76;3.82;;;;;;;20.83;71.32;100724.55;;;;-52
2021/09/05 13:26:13;;;;;;;5.87;3.93;;;;;;;20.84;71.25;100722.05;;;;-51
2021/09/05 13:29:13;;;;;;;5.19;4.06;;;;;;;20.84;71.29;100722.05;;;;-52
2021/09/05 13:32:13;;;;;;;4.64;3.81;;;;;;;20.85;71.25;100723.18;;;;-50
2021/09/05 13:35:13;;;;;;;7.58;3.91;;;;;;;20.85;71.29;100719.19;;;;-53
2021/09/05 13:38:13;;;;;;;4.93;3.66;;;;;;;20.86;71.32;100718.39;;;;-47
2021/09/05 13:41:14;;;;;;;6.39;3.95;;;;;;;20.85;71.31;100714.13;;;;-47
2021/09/05 13:44:13;;;;;;;5.13;3.98;;;;;;;20.86;71.25;100713.02;;;;-48
2021/09/05 13:47:13;;;;;;;4.76;3.74;;;;;;;20.86;71.11;100708.30;;;;-57
2021/09/05 13:50:13;;;;;;;7.82;3.76;;;;;;;20.88;71.24;100706.35;;;;-56
2021/09/05 13:53:14;;;;;;;6.21;3.81;;;;;;;20.87;71.25;100707.55;;;;-56
2021/09/05 13:56:13;;;;;;;4.69;3.68;;;;;;;20.87;71.20;100707.14;;;;-52
2021/09/05 13:59:13;;;;;;;7.15;3.81;;;;;;;20.88;71.17;100704.39;;;;-58
2021/09/05 14:02:13;;;;;;;5.99;3.77;;;;;;;20.88;71.20;100707.23;;;;-64
2021/09/05 14:05:13;;;;;;;4.83;3.84;;;;;;;20.88;71.25;100704.31;;;;-61
2021/09/05 14:08:13;;;;;;;5.85;3.70;;;;;;;20.89;71.16;100704.71;;;;-57
2021/09/05 14:11:13;;;;;;;4.68;3.59;;;;;;;20.89;71.17;100702.02;;;;-58
2021/09/05 14:14:13;;;;;;;5.27;3.86;;;;;;;20.89;71.17;100697.53;;;;-57
2021/09/05 14:17:13;;;;;;;5.51;3.79;;;;;;;20.89;71.09;100695.98;;;;-52
2021/09/05 14:20:13;;;;;;;6.56;3.85;;;;;;;20.89;71.08;100697.30;;;;-52
2021/09/05 14:23:14;;;;;;;7.02;3.81;;;;;;;20.91;71.10;100696.73;;;;-51
2021/09/05 14:26:17;;;;;;;6.65;3.85;;;;;;;20.89;71.03;100696.97;;;;-50
2021/09/05 14:29:17;;;;;;;6.03;3.91;;;;;;;20.89;71.03;100694.77;;;;-58
2021/09/05 14:32:17;;;;;;;6.34;3.84;;;;;;;20.87;71.07;100693.20;;;;-50
2021/09/05 14:35:24;;;;;;;5.62;3.87;;;;;;;20.87;71.04;100695.98;;;;-50
2021/09/05 14:38:38;;;;;;;5.78;3.79;;;;;;;20.85;71.12;100694.59;;;;-51
2021/09/05 14:50:20;;;;;;;5.15;3.81;;;;;;;20.84;71.05;100694.11;;;;-58
2021/09/05 14:56:13;;;;;;;4.03;3.51;;;;;;;20.83;70.97;100696.28;;;;-51
2021/09/05 14:59:23;;;;;;;6.65;3.61;;;;;;;20.82;70.98;100693.36;;;;-59
2021/09/05 15:02:15;;;;;;;5.60;3.67;;;;;;;20.82;70.90;100699.16;;;;-58
2021/09/05 15:05:31;;;;;;;4.21;3.47;;;;;;;20.82;71.01;100694.27;;;;-58
2021/09/05 15:11:13;;;;;;;5.49;3.51;;;;;;;20.81;70.92;100692.94;;;;-58
2021/09/05 15:14:13;;;;;;;4.13;3.69;;;;;;;20.81;70.95;100694.81;;;;-58
2021/09/05 15:17:13;;;;;;;4.73;3.79;;;;;;;20.81;70.95;100691.97;;;;-58
2021/09/05 15:20:15;;;;;;;6.42;3.73;;;;;;;20.80;70.96;100693.59;;;;-58
2021/09/05 15:23:14;;;;;;;5.35;3.71;;;;;;;20.79;70.90;100692.30;;;;-59
2021/09/05 15:26:17;;;;;;;4.73;3.53;;;;;;;20.79;70.93;100691.65;;;;-58
2021/09/05 15:29:34;;;;;;;4.17;3.63;;;;;;;20.79;70.97;100688.77;;;;-54
2021/09/05 15:36:42;;;;;;;4.65;3.42;;;;;;;20.78;70.98;100687.80;;;;-50
2021/09/05 15:39:31;;;;;;;4.18;3.37;;;;;;;20.78;70.98;100687.23;;;;-51
2021/09/05 15:51:23;;;;;;;4.50;3.51;;;;;;;20.78;70.93;100684.06;;;;-58
2021/09/05 15:54:17;;;;;;;4.57;3.40;;;;;;;20.77;70.95;100681.84;;;;-58
2021/09/05 15:57:13;;;;;;;3.87;3.35;;;;;;;20.78;71.08;100680.87;;;;-54
2021/09/05 16:00:22;;;;;;;4.99;3.51;;;;;;;20.80;71.06;100680.81;;;;-54
2021/09/05 16:03:20;;;;;;;5.17;3.41;;;;;;;20.79;71.07;100684.16;;;;-53
2021/09/05 16:18:13;;;;;;;8.85;3.23;;;;;;;20.86;71.23;100680.75;;;;-60
2021/09/05 16:21:13;;;;;;;4.92;3.46;;;;;;;20.87;71.20;100680.09;;;;-60
2021/09/05 16:24:13;;;;;;;4.36;3.32;;;;;;;20.88;71.24;100684.52;;;;-60
2021/09/05 16:27:15;;;;;;;4.26;3.39;;;;;;;20.89;71.21;100682.14;;;;-60
2021/09/05 16:30:16;;;;;;;4.74;3.45;;;;;;;20.90;71.27;100682.25;;;;-56
2021/09/05 16:33:27;;;;;;;6.42;3.34;;;;;;;20.91;71.23;100682.72;;;;-60
2021/09/05 16:36:22;;;;;;;4.47;3.06;;;;;;;20.92;71.24;100684.45;;;;-58
2021/09/05 16:42:13;;;;;;;4.86;3.31;;;;;;;20.93;71.22;100682.00;;;;-52
2021/09/05 16:45:13;;;;;;;5.48;3.31;;;;;;;20.95;71.20;100687.39;;;;-62
2021/09/05 16:48:13;;;;;;;4.74;3.41;;;;;;;20.95;71.18;100686.57;;;;-60
2021/09/05 16:51:13;;;;;;;4.20;3.05;;;;;;;20.96;71.26;100686.67;;;;-49
2021/09/05 16:54:13;;;;;;;3.51;3.05;;;;;;;20.96;71.25;100684.72;;;;-53
2021/09/05 17:02:13;;;;;;;4.32;3.25;;;;;;;20.98;71.31;100689.34;;;;-56
2021/09/05 17:05:13;;;;;;;4.29;3.10;;;;;;;20.99;71.31;100695.88;;;;-52
2021/09/05 17:08:13;;;;;;;6.42;3.13;;;;;;;20.99;71.34;100695.06;;;;-58
2021/09/05 17:11:13;;;;;;;4.49;3.15;;;;;;;20.98;71.19;100696.12;;;;-55
2021/09/05 17:14:13;;;;;;;3.71;3.25;;;;;;;20.97;71.32;100699.04;;;;-55
2021/09/05 17:17:13;;;;;;;5.21;3.08;;;;;;;20.96;71.28;100699.22;;;;-55
2021/09/05 17:20:13;;;;;;;3.53;2.91;;;;;;;20.94;71.34;100699.20;;;;-55
2021/09/05 17:23:13;;;;;;;3.96;3.15;;;;;;;20.94;71.24;100700.52;;;;-54
2021/09/05 17:26:13;;;;;;;4.79;3.17;;;;;;;20.93;71.17;100697.72;;;;-58
2021/09/05 17:29:13;;;;;;;3.49;3.04;;;;;;;20.92;71.28;100700.42;;;;-59
2021/09/05 17:32:13;;;;;;;5.46;3.17;;;;;;;20.93;71.14;100706.44;;;;-58
2021/09/05 17:35:13;;;;;;;3.37;3.07;;;;;;;20.91;71.17;100709.20;;;;-58
2021/09/05 17:38:13;;;;;;;4.05;3.09;;;;;;;20.91;71.15;100708.30;;;;-58
2021/09/05 17:41:13;;;;;;;4.24;3.08;;;;;;;20.91;71.14;100713.03;;;;-59
2021/09/05 17:44:13;;;;;;;3.36;3.04;;;;;;;20.90;71.12;100714.34;;;;-56
2021/09/05 17:47:13;;;;;;;3.63;2.96;;;;;;;20.89;71.13;100719.45;;;;-56